createdAt,value
2018-06-04T00:00:07.378Z,16.01
2018-06-04T00:01:07.584Z,15.93
2018-06-04T00:02:07.783Z,16.08
2018-06-04T00:03:07.988Z,16.09
2018-06-04T00:04:08.173Z,16.04
2018-06-04T00:06:40.308Z,16.04
2018-06-04T00:07:40.482Z,16.11
2018-06-04T00:08:40.690Z,16.09
2018-06-04T00:09:40.877Z,16.05
2018-06-04T00:12:13.153Z,16.12
2018-06-04T00:13:13.322Z,16.09
2018-06-04T00:14:13.527Z,16.09
2018-06-04T00:15:13.737Z,16.07
2018-06-04T00:16:13.933Z,16.21
2018-06-04T00:18:46.078Z,16.15
2018-06-04T00:19:46.254Z,16.09
2018-06-04T00:20:46.447Z,16.05
2018-06-04T00:21:46.655Z,16.01
2018-06-04T00:22:46.858Z,15.94
2018-06-04T00:23:47.083Z,16.01
2018-06-04T00:24:47.302Z,15.90
2018-06-04T00:25:47.512Z,15.97
2018-06-04T00:26:47.720Z,15.84
2018-06-04T00:27:47.919Z,15.86
2018-06-04T00:28:48.114Z,15.76
2018-06-04T00:29:48.333Z,15.76
2018-06-04T00:30:48.527Z,15.71
2018-06-04T00:31:48.742Z,15.49
2018-06-04T00:32:48.955Z,15.50
2018-06-04T00:33:49.139Z,15.49
2018-06-04T00:34:49.331Z,15.46
2018-06-04T00:35:49.520Z,15.41
2018-06-04T00:36:49.711Z,15.47
2018-06-04T00:37:49.922Z,15.41
2018-06-04T00:38:50.121Z,15.47
2018-06-04T00:39:50.325Z,15.41
2018-06-04T00:40:50.532Z,15.50
2018-06-04T00:41:50.738Z,15.41
2018-06-04T00:42:50.923Z,15.49
2018-06-04T00:43:51.125Z,15.51
2018-06-04T00:44:51.331Z,15.41
2018-06-04T00:45:51.535Z,15.39
2018-06-04T00:46:51.757Z,15.39
2018-06-04T00:47:51.950Z,15.41
2018-06-04T00:48:52.142Z,15.41
2018-06-04T00:49:52.335Z,15.54
2018-06-04T00:50:52.520Z,15.39
2018-06-04T00:51:52.717Z,15.39
2018-06-04T00:52:52.907Z,15.31
2018-06-04T00:53:53.099Z,15.34
2018-06-04T00:54:53.295Z,15.35
2018-06-04T00:55:53.491Z,15.34
2018-06-04T00:56:53.701Z,15.39
2018-06-04T00:57:53.915Z,15.34
2018-06-04T01:00:25.719Z,15.34
2018-06-04T01:01:25.893Z,15.16
2018-06-04T01:02:26.091Z,15.20
2018-06-04T01:03:26.305Z,15.21
2018-06-04T01:04:26.488Z,15.28
2018-06-04T01:05:26.676Z,15.16
2018-06-04T01:06:26.865Z,15.20
2018-06-04T01:07:27.106Z,15.25
2018-06-04T01:08:27.264Z,15.31
2018-06-04T01:09:27.479Z,15.31
2018-06-04T01:11:59.631Z,15.53
2018-06-04T01:12:59.801Z,15.34
2018-06-04T01:14:00.013Z,15.39
2018-06-04T01:15:00.210Z,15.34
2018-06-04T01:16:00.400Z,15.35
2018-06-04T01:17:00.616Z,15.46
2018-06-04T01:18:00.801Z,15.44
2018-06-04T01:19:01.012Z,15.47
2018-06-04T01:20:01.207Z,15.36
2018-06-04T01:21:01.406Z,15.43
2018-06-04T01:22:01.605Z,15.28
2018-06-04T01:23:01.812Z,15.32
2018-06-04T01:24:02.028Z,15.34
2018-06-04T01:25:02.238Z,15.39
2018-06-04T01:26:02.421Z,15.34
2018-06-04T01:27:02.626Z,15.29
2018-06-04T01:28:02.836Z,15.27
2018-06-04T01:29:03.022Z,15.25
2018-06-04T01:30:03.217Z,15.23
2018-06-04T01:31:03.421Z,15.20
2018-06-04T01:32:03.622Z,15.17
2018-06-04T01:33:03.812Z,15.11
2018-06-04T01:34:04.001Z,15.11
2018-06-04T01:35:04.185Z,15.11
2018-06-04T01:36:04.370Z,15.16
2018-06-04T01:37:04.565Z,15.16
2018-06-04T01:38:04.760Z,15.16
2018-06-04T01:39:04.953Z,15.13
2018-06-04T01:40:05.168Z,15.10
2018-06-04T01:41:05.352Z,14.98
2018-06-04T01:42:05.558Z,15.03
2018-06-04T01:43:05.765Z,14.98
2018-06-04T01:44:05.946Z,14.86
2018-06-04T01:45:06.142Z,14.88
2018-06-04T01:46:06.321Z,14.88
2018-06-04T01:47:06.507Z,14.78
2018-06-04T01:48:06.717Z,14.80
2018-06-04T01:49:06.913Z,14.70
2018-06-04T01:50:07.120Z,14.60
2018-06-04T01:51:07.332Z,14.62
2018-06-04T01:52:07.515Z,14.65
2018-06-04T01:53:07.708Z,14.75
2018-06-04T01:54:07.900Z,14.62
2018-06-04T01:55:08.093Z,14.62
2018-06-04T01:56:08.305Z,14.72
2018-06-04T01:57:08.507Z,14.73
2018-06-04T01:59:40.689Z,14.81
2018-06-04T02:00:40.877Z,14.80
2018-06-04T02:01:41.084Z,14.84
2018-06-04T02:02:41.317Z,14.88
2018-06-04T02:03:41.532Z,14.81
2018-06-04T02:04:41.733Z,14.70
2018-06-04T02:05:41.916Z,14.73
2018-06-04T02:06:42.103Z,14.70
2018-06-04T02:07:42.316Z,14.69
2018-06-04T02:08:42.503Z,14.57
2018-06-04T02:09:42.706Z,14.55
2018-06-04T02:12:14.856Z,14.62
2018-06-04T02:13:15.030Z,14.62
2018-06-04T02:14:15.237Z,14.65
2018-06-04T02:15:15.448Z,14.61
2018-06-04T02:16:15.647Z,14.70
2018-06-04T02:17:15.833Z,14.65
2018-06-04T02:18:16.053Z,14.65
2018-06-04T02:19:16.257Z,14.69
2018-06-04T02:20:16.444Z,14.73
2018-06-04T02:21:16.657Z,14.77
2018-06-04T02:22:16.840Z,14.80
2018-06-04T02:23:17.022Z,14.86
2018-06-04T02:24:17.209Z,14.88
2018-06-04T02:25:17.403Z,14.77
2018-06-04T02:26:17.585Z,14.73
2018-06-04T02:27:17.784Z,14.73
2018-06-04T02:28:17.975Z,14.81
2018-06-04T02:29:18.168Z,14.80
2018-06-04T02:30:18.364Z,14.78
2018-06-04T02:31:18.548Z,14.84
2018-06-04T02:32:18.732Z,14.65
2018-06-04T02:33:18.934Z,14.69
2018-06-04T02:34:19.123Z,14.70
2018-06-04T02:35:19.312Z,14.69
2018-06-04T02:36:19.515Z,14.62
2018-06-04T02:37:19.732Z,14.52
2018-06-04T02:38:19.914Z,14.62
2018-06-04T02:39:20.110Z,14.51
2018-06-04T02:40:20.311Z,14.51
2018-06-04T02:41:20.527Z,14.51
2018-06-04T02:42:20.733Z,14.46
2018-06-04T02:43:20.936Z,14.46
2018-06-04T02:44:21.116Z,14.39
2018-06-04T02:45:21.313Z,14.25
2018-06-04T02:46:21.496Z,14.39
2018-06-04T02:47:21.702Z,14.29
2018-06-04T02:48:21.891Z,14.37
2018-06-04T02:49:22.105Z,14.29
2018-06-04T02:50:22.324Z,14.33
2018-06-04T02:51:22.526Z,14.28
2018-06-04T02:52:22.723Z,14.25
2018-06-04T02:53:22.908Z,14.42
2018-06-04T02:54:23.116Z,14.45
2018-06-04T02:55:23.320Z,14.57
2018-06-04T02:56:23.513Z,14.62
2018-06-04T02:57:23.779Z,14.60
2018-06-04T02:58:23.864Z,14.47
2018-06-04T02:59:24.078Z,14.43
2018-06-04T03:00:24.259Z,14.57
2018-06-04T03:01:24.450Z,14.57
2018-06-04T03:02:24.641Z,14.50
2018-06-04T03:03:24.834Z,14.50
2018-06-04T03:04:25.039Z,14.45
2018-06-04T03:05:25.239Z,14.46
2018-06-04T03:06:25.445Z,14.50
2018-06-04T03:07:25.625Z,14.42
2018-06-04T03:08:25.814Z,14.47
2018-06-04T03:09:26.029Z,14.43
2018-06-04T03:10:26.243Z,14.37
2018-06-04T03:11:26.458Z,14.27
2018-06-04T03:12:26.643Z,14.29
2018-06-04T03:13:26.861Z,14.32
2018-06-04T03:14:27.059Z,14.25
2018-06-04T03:15:27.261Z,14.27
2018-06-04T03:16:27.464Z,14.32
2018-06-04T03:17:27.679Z,14.33
2018-06-04T03:18:27.871Z,14.36
2018-06-04T03:19:28.056Z,14.39
2018-06-04T03:20:28.263Z,14.33
2018-06-04T03:21:28.470Z,14.28
2018-06-04T03:22:28.663Z,14.35
2018-06-04T03:23:28.849Z,14.28
2018-06-04T03:24:29.043Z,14.35
2018-06-04T03:25:29.241Z,14.46
2018-06-04T03:26:29.450Z,14.45
2018-06-04T03:27:29.664Z,14.45
2018-06-04T03:28:29.855Z,14.51
2018-06-04T03:29:30.062Z,14.57
2018-06-04T03:30:30.267Z,14.57
2018-06-04T03:31:30.487Z,14.58
2018-06-04T03:32:30.679Z,14.51
2018-06-04T03:33:30.872Z,14.61
2018-06-04T03:34:31.056Z,14.68
2018-06-04T03:35:31.246Z,14.51
2018-06-04T03:36:31.433Z,14.46
2018-06-04T03:37:31.621Z,14.55
2018-06-04T03:38:31.833Z,14.46
2018-06-04T03:39:32.029Z,14.51
2018-06-04T03:40:32.219Z,14.64
2018-06-04T03:41:32.432Z,14.69
2018-06-04T03:42:32.644Z,14.78
2018-06-04T03:43:32.839Z,14.83
2018-06-04T03:44:33.032Z,14.81
2018-06-04T03:45:33.231Z,14.88
2018-06-04T03:46:33.417Z,15.06
2018-06-04T03:47:33.601Z,15.09
2018-06-04T03:48:33.789Z,14.99
2018-06-04T03:49:33.978Z,15.07
2018-06-04T03:50:34.175Z,15.09
2018-06-04T03:51:34.385Z,14.99
2018-06-04T03:52:34.578Z,15.01
2018-06-04T03:53:34.791Z,14.91
2018-06-04T03:54:34.995Z,14.86
2018-06-04T03:55:35.186Z,14.81
2018-06-04T03:56:35.379Z,14.78
2018-06-04T03:59:07.779Z,14.77
2018-06-04T04:00:07.702Z,14.81
2018-06-04T04:01:07.980Z,14.84
2018-06-04T04:02:08.156Z,14.78
2018-06-04T04:03:08.199Z,14.80
2018-06-04T04:04:08.413Z,14.58
2018-06-04T04:05:08.606Z,14.77
2018-06-04T04:06:08.794Z,14.75
2018-06-04T04:07:08.979Z,14.75
2018-06-04T04:08:09.219Z,14.83
2018-06-04T04:09:09.432Z,14.94
2018-06-04T04:10:09.638Z,15.07
2018-06-04T04:11:09.821Z,15.20
2018-06-04T04:12:10.069Z,15.64
2018-06-04T04:13:10.225Z,16.21
2018-06-04T04:14:10.432Z,16.71
2018-06-04T04:15:10.633Z,17.16
2018-06-04T04:16:10.841Z,17.48
2018-06-04T04:17:11.025Z,17.68
2018-06-04T04:18:11.218Z,17.46
2018-06-04T04:19:11.437Z,17.52
2018-06-04T04:20:11.642Z,17.33
2018-06-04T04:21:11.859Z,17.26
2018-06-04T04:22:12.057Z,17.71
2018-06-04T04:23:12.235Z,18.10
2018-06-04T04:24:12.441Z,18.33
2018-06-04T04:25:12.640Z,18.55
2018-06-04T04:26:12.852Z,18.63
2018-06-04T04:27:13.041Z,18.91
2018-06-04T04:28:13.255Z,19.10
2018-06-04T04:29:13.450Z,18.81
2018-06-04T04:30:13.662Z,19.29
2018-06-04T04:31:13.885Z,19.50
2018-06-04T04:32:14.648Z,19.36
2018-06-04T04:33:14.247Z,18.60
2018-06-04T04:34:14.455Z,17.93
2018-06-04T04:35:14.662Z,17.15
2018-06-04T04:36:14.867Z,16.56
2018-06-04T04:37:15.052Z,16.53
2018-06-04T04:38:15.239Z,17.08
2018-06-04T04:39:15.430Z,17.64
2018-06-04T04:40:15.643Z,18.03
2018-06-04T04:41:15.838Z,18.45
2018-06-04T04:43:48.051Z,18.25
2018-06-04T04:44:48.236Z,18.27
2018-06-04T04:45:48.443Z,18.26
2018-06-04T04:46:48.632Z,18.48
2018-06-04T04:47:48.854Z,18.65
2018-06-04T04:48:49.047Z,18.42
2018-06-04T04:49:49.237Z,18.58
2018-06-04T04:50:49.462Z,18.76
2018-06-04T04:51:49.679Z,18.84
2018-06-04T04:52:49.892Z,18.98
2018-06-04T04:53:50.084Z,19.32
2018-06-04T04:54:50.362Z,19.63
2018-06-04T04:55:50.444Z,19.51
2018-06-04T04:56:50.638Z,19.43
2018-06-04T04:57:50.824Z,19.06
2018-06-04T04:58:51.018Z,19.29
2018-06-04T04:59:51.233Z,18.90
2018-06-04T05:00:51.429Z,18.70
2018-06-04T05:01:51.627Z,18.81
2018-06-04T05:02:51.838Z,19.00
2018-06-04T05:03:52.055Z,19.22
2018-06-04T05:04:52.279Z,19.62
2018-06-04T05:05:52.489Z,20.06
2018-06-04T05:06:52.701Z,20.41
2018-06-04T05:09:24.538Z,20.33
2018-06-04T05:10:24.711Z,20.33
2018-06-04T05:11:24.932Z,19.91
2018-06-04T05:12:25.150Z,20.84
2018-06-04T05:13:25.340Z,21.12
2018-06-04T05:14:25.575Z,20.80
2018-06-04T05:15:25.761Z,21.10
2018-06-04T05:17:57.900Z,21.37
2018-06-04T05:18:58.077Z,21.07
2018-06-04T05:19:58.273Z,21.53
2018-06-04T05:20:58.461Z,21.96
2018-06-04T05:21:58.660Z,22.33
2018-06-04T05:22:58.877Z,22.40
2018-06-04T05:23:59.091Z,22.88
2018-06-04T05:24:59.306Z,22.75
2018-06-04T05:25:59.505Z,23.68
2018-06-04T05:26:59.702Z,23.51
2018-06-04T05:27:59.923Z,23.31
2018-06-04T05:29:00.140Z,23.19
2018-06-04T05:30:00.353Z,21.86
2018-06-04T05:31:00.568Z,22.37
2018-06-04T05:32:00.773Z,22.72
2018-06-04T05:33:00.964Z,23.69
2018-06-04T05:34:01.198Z,24.34
2018-06-04T05:35:01.416Z,22.85
2018-06-04T05:36:01.625Z,24.10
2018-06-04T05:37:01.874Z,23.00
2018-06-04T05:38:02.060Z,22.90
2018-06-04T05:39:02.273Z,23.12
2018-06-04T05:40:02.483Z,22.95
2018-06-04T05:41:02.668Z,23.47
2018-06-04T05:42:02.877Z,23.16
2018-06-04T05:43:03.069Z,23.60
2018-06-04T05:44:03.283Z,23.33
2018-06-04T05:45:03.502Z,23.78
2018-06-04T05:46:03.703Z,23.22
2018-06-04T05:47:03.903Z,23.38
2018-06-04T05:48:04.109Z,23.31
2018-06-04T05:49:04.305Z,23.84
2018-06-04T05:50:04.510Z,24.34
2018-06-04T05:51:04.722Z,24.16
2018-06-04T05:52:04.928Z,24.88
2018-06-04T05:53:05.133Z,25.24
2018-06-04T05:54:05.340Z,25.33
2018-06-04T05:55:05.524Z,23.66
2018-06-04T05:56:05.738Z,23.80
2018-06-04T05:57:05.946Z,24.18
2018-06-04T05:58:06.155Z,23.46
2018-06-04T05:59:06.377Z,24.53
2018-06-04T06:00:06.591Z,24.32
2018-06-04T06:01:06.812Z,24.62
2018-06-04T06:02:07.020Z,25.30
2018-06-04T06:03:07.217Z,24.73
2018-06-04T06:04:07.421Z,24.69
2018-06-04T06:05:07.625Z,24.61
2018-06-04T06:06:07.837Z,25.33
2018-06-04T06:07:08.044Z,25.76
2018-06-04T06:08:08.262Z,26.01
2018-06-04T06:09:08.505Z,24.83
2018-06-04T06:10:08.682Z,24.77
2018-06-04T06:11:08.909Z,24.68
2018-06-04T06:12:09.131Z,25.27
2018-06-04T06:13:09.343Z,24.05
2018-06-04T06:14:09.619Z,24.73
2018-06-04T06:15:09.795Z,24.95
2018-06-04T06:16:10.021Z,26.02
2018-06-04T06:17:10.220Z,26.25
2018-06-04T06:18:10.439Z,24.80
2018-06-04T06:19:10.635Z,24.69
2018-06-04T06:20:10.842Z,25.79
2018-06-04T06:21:11.065Z,26.50
2018-06-04T06:22:11.266Z,26.97
2018-06-04T06:23:11.481Z,27.79
2018-06-04T06:24:11.707Z,27.62
2018-06-04T06:25:11.934Z,27.92
2018-06-04T06:26:12.150Z,28.37
2018-06-04T06:27:12.365Z,28.27
2018-06-04T06:28:12.584Z,28.62
2018-06-04T06:29:12.795Z,28.90
2018-06-04T06:30:13.013Z,29.87
2018-06-04T06:31:13.214Z,30.08
2018-06-04T06:32:13.419Z,29.16
2018-06-04T06:33:13.621Z,29.00
2018-06-04T06:34:13.837Z,28.55
2018-06-04T06:35:14.037Z,29.19
2018-06-04T06:36:14.230Z,28.98
2018-06-04T06:37:14.459Z,28.43
2018-06-04T06:38:14.653Z,27.47
2018-06-04T06:39:14.861Z,27.87
2018-06-04T06:40:15.061Z,27.59
2018-06-04T06:41:15.271Z,27.40
2018-06-04T06:42:15.480Z,25.65
2018-06-04T06:43:15.677Z,25.13
2018-06-04T06:44:15.901Z,24.96
2018-06-04T06:45:16.116Z,24.49
2018-06-04T06:46:16.314Z,25.20
2018-06-04T06:47:16.513Z,25.95
2018-06-04T06:48:16.713Z,26.80
2018-06-04T06:49:16.927Z,27.21
2018-06-04T06:50:17.128Z,26.95
2018-06-04T06:51:17.350Z,25.87
2018-06-04T06:52:17.578Z,25.77
2018-06-04T06:53:17.795Z,25.80
2018-06-04T06:54:18.078Z,26.40
2018-06-04T06:55:18.176Z,27.31
2018-06-04T06:56:18.396Z,26.28
2018-06-04T06:57:18.591Z,26.69
2018-06-04T06:58:18.813Z,27.07
2018-06-04T06:59:19.031Z,28.07
2018-06-04T07:00:19.233Z,28.56
2018-06-04T07:01:19.438Z,28.17
2018-06-04T07:03:51.862Z,25.51
2018-06-04T07:04:51.799Z,25.60
2018-06-04T07:05:51.999Z,26.01
2018-06-04T07:06:52.210Z,27.27
2018-06-04T07:07:52.420Z,27.37
2018-06-04T07:08:52.643Z,28.51
2018-06-04T07:09:52.866Z,28.12
2018-06-04T07:10:53.081Z,28.39
2018-06-04T07:11:53.310Z,28.67
2018-06-04T07:12:53.529Z,29.23
2018-06-04T07:13:53.723Z,29.57
2018-06-04T07:16:25.574Z,30.37
2018-06-04T07:17:25.751Z,30.00
2018-06-04T07:18:25.968Z,28.67
2018-06-04T07:19:26.171Z,28.34
2018-06-04T07:20:26.379Z,28.46
2018-06-04T07:21:26.594Z,27.81
2018-06-04T07:22:26.796Z,28.85
2018-06-04T07:23:27.003Z,29.57
2018-06-04T07:24:27.212Z,28.96
2018-06-04T07:25:27.431Z,29.18
2018-06-04T07:26:27.639Z,29.61
2018-06-04T07:27:27.837Z,29.46
2018-06-04T07:28:28.051Z,29.79
2018-06-04T07:29:28.270Z,29.37
2018-06-04T07:30:28.482Z,29.08
2018-06-04T07:31:28.705Z,27.17
2018-06-04T07:32:28.902Z,28.95
2018-06-04T07:33:29.129Z,29.64
2018-06-04T07:34:29.336Z,29.04
2018-06-04T07:35:29.581Z,28.29
2018-06-04T07:36:29.813Z,29.19
2018-06-04T07:37:30.029Z,29.19
2018-06-04T07:38:30.250Z,29.26
2018-06-04T07:39:30.448Z,29.89
2018-06-04T07:42:02.830Z,30.57
2018-06-04T07:43:03.019Z,31.14
2018-06-04T07:44:03.223Z,31.57
2018-06-04T07:45:03.442Z,30.75
2018-06-04T07:46:03.660Z,30.91
2018-06-04T07:47:03.862Z,30.46
2018-06-04T07:48:04.070Z,30.51
2018-06-04T07:49:04.273Z,30.08
2018-06-04T07:50:04.501Z,30.46
2018-06-04T07:51:04.698Z,30.38
2018-06-04T07:52:04.910Z,31.02
2018-06-04T07:53:05.134Z,30.22
2018-06-04T07:54:05.336Z,30.53
2018-06-04T07:55:05.563Z,31.14
2018-06-04T07:56:05.774Z,31.26
2018-06-04T07:57:05.986Z,30.38
2018-06-04T07:58:06.188Z,29.05
2018-06-04T07:59:06.407Z,29.37
2018-06-04T08:00:06.621Z,30.45
2018-06-04T08:01:06.828Z,31.04
2018-06-04T08:02:07.021Z,30.61
2018-06-04T08:03:07.245Z,30.60
2018-06-04T08:04:07.450Z,30.47
2018-06-04T08:05:07.673Z,30.80
2018-06-04T08:06:07.897Z,29.82
2018-06-04T08:07:08.105Z,30.51
2018-06-04T08:08:08.298Z,30.07
2018-06-04T08:09:08.535Z,30.22
2018-06-04T08:10:08.781Z,29.26
2018-06-04T08:11:08.976Z,30.38
2018-06-04T08:12:09.194Z,31.28
2018-06-04T08:13:09.406Z,31.20
2018-06-04T08:14:09.640Z,32.07
2018-06-04T08:15:09.842Z,32.01
2018-06-04T08:16:10.061Z,31.99
2018-06-04T08:17:10.269Z,31.86
2018-06-04T08:18:10.498Z,31.66
2018-06-04T08:19:10.696Z,32.21
2018-06-04T08:20:10.900Z,31.56
2018-06-04T08:21:11.127Z,31.75
2018-06-04T08:22:11.357Z,30.11
2018-06-04T08:23:11.552Z,30.42
2018-06-04T08:24:11.838Z,30.29
2018-06-04T08:25:11.978Z,31.01
2018-06-04T08:26:12.205Z,31.35
2018-06-04T08:27:12.409Z,32.06
2018-06-04T08:28:12.619Z,31.58
2018-06-04T08:29:12.861Z,30.29
2018-06-04T08:30:13.057Z,31.44
2018-06-04T08:31:13.273Z,32.30
2018-06-04T08:32:13.500Z,32.13
2018-06-04T08:33:13.704Z,32.56
2018-06-04T08:34:13.903Z,32.51
2018-06-04T08:35:14.133Z,32.72
2018-06-04T08:36:14.334Z,32.97
2018-06-04T08:37:14.557Z,32.48
2018-06-04T08:38:14.756Z,32.59
2018-06-04T08:39:14.969Z,31.25
2018-06-04T08:40:15.239Z,31.35
2018-06-04T08:41:15.388Z,30.92
2018-06-04T08:42:15.594Z,31.78
2018-06-04T08:43:15.826Z,31.68
2018-06-04T08:44:16.055Z,32.38
2018-06-04T08:45:16.291Z,32.77
2018-06-04T08:46:16.511Z,33.29
2018-06-04T08:47:16.725Z,32.50
2018-06-04T08:48:16.924Z,32.93
2018-06-04T08:49:17.146Z,32.21
2018-06-04T08:50:17.361Z,32.32
2018-06-04T08:51:17.587Z,31.44
2018-06-04T08:52:17.803Z,32.01
2018-06-04T08:53:18.043Z,32.44
2018-06-04T08:54:18.276Z,32.70
2018-06-04T08:55:18.503Z,33.45
2018-06-04T08:56:18.720Z,33.51
2018-06-04T08:57:18.928Z,33.42
2018-06-04T08:58:19.140Z,33.50
2018-06-04T08:59:19.340Z,32.63
2018-06-04T09:00:19.540Z,32.55
2018-06-04T09:01:19.741Z,32.15
2018-06-04T09:03:51.912Z,31.65
2018-06-04T09:04:52.101Z,32.59
2018-06-04T09:05:52.310Z,33.11
2018-06-04T09:06:52.538Z,33.26
2018-06-04T09:07:52.743Z,32.25
2018-06-04T09:08:52.974Z,31.92
2018-06-04T09:09:53.205Z,31.84
2018-06-04T09:10:53.425Z,31.96
2018-06-04T09:11:53.624Z,31.95
2018-06-04T09:12:53.835Z,32.50
2018-06-04T09:13:54.159Z,32.77
2018-06-04T09:14:54.233Z,33.39
2018-06-04T09:15:54.441Z,33.06
2018-06-04T09:16:54.644Z,32.92
2018-06-04T09:17:54.865Z,32.94
2018-06-04T09:18:55.068Z,32.45
2018-06-04T09:19:55.274Z,32.63
2018-06-04T09:20:55.498Z,32.88
2018-06-04T09:21:55.698Z,32.79
2018-06-04T09:22:55.916Z,32.32
2018-06-04T09:23:56.120Z,30.39
2018-06-04T09:24:56.346Z,31.31
2018-06-04T09:25:56.551Z,31.95
2018-06-04T09:26:56.754Z,31.88
2018-06-04T09:27:56.956Z,31.78
2018-06-04T09:28:57.158Z,31.78
2018-06-04T09:29:57.377Z,31.46
2018-06-04T09:30:57.613Z,30.79
2018-06-04T09:31:57.822Z,31.76
2018-06-04T09:32:58.028Z,32.00
2018-06-04T09:33:58.246Z,32.63
2018-06-04T09:34:58.449Z,33.35
2018-06-04T09:35:58.674Z,33.93
2018-06-04T09:36:58.921Z,34.00
2018-06-04T09:37:59.118Z,33.35
2018-06-04T09:38:59.337Z,33.47
2018-06-04T09:39:59.649Z,33.29
2018-06-04T09:40:59.806Z,32.99
2018-06-04T09:42:00.023Z,32.85
2018-06-04T09:43:00.231Z,31.69
2018-06-04T09:44:00.459Z,32.26
2018-06-04T09:45:00.683Z,32.33
2018-06-04T09:46:00.894Z,32.65
2018-06-04T09:47:01.090Z,32.51
2018-06-04T09:48:01.314Z,32.00
2018-06-04T09:49:01.513Z,32.65
2018-06-04T09:50:01.737Z,33.47
2018-06-04T09:51:01.966Z,33.07
2018-06-04T09:53:34.117Z,33.84
2018-06-04T09:54:34.311Z,32.70
2018-06-04T09:55:34.544Z,32.56
2018-06-04T09:56:34.763Z,33.09
2018-06-04T09:57:34.963Z,33.78
2018-06-04T09:58:35.209Z,34.37
2018-06-04T09:59:35.407Z,34.46
2018-06-04T10:00:35.607Z,32.94
2018-06-04T10:01:35.811Z,32.44
2018-06-04T10:02:36.020Z,32.37
2018-06-04T10:03:36.253Z,31.93
2018-06-04T10:04:36.496Z,32.48
2018-06-04T10:05:36.709Z,31.35
2018-06-04T10:06:36.930Z,31.17
2018-06-04T10:07:37.152Z,32.08
2018-06-04T10:08:37.365Z,32.56
2018-06-04T10:09:37.591Z,33.56
2018-06-04T10:10:37.802Z,33.93
2018-06-04T10:11:38.003Z,34.30
2018-06-04T10:12:38.209Z,34.42
2018-06-04T10:13:38.430Z,34.78
2018-06-04T10:14:38.652Z,35.14
2018-06-04T10:15:38.861Z,34.44
2018-06-04T10:16:39.087Z,33.91
2018-06-04T10:17:39.263Z,33.79
2018-06-04T10:18:39.491Z,33.38
2018-06-04T10:19:39.661Z,33.26
2018-06-04T10:20:39.865Z,33.29
2018-06-04T10:21:40.064Z,33.12
2018-06-04T10:22:40.263Z,33.28
2018-06-04T10:23:40.475Z,32.85
2018-06-04T10:24:40.679Z,32.25
2018-06-04T10:25:40.879Z,31.73
2018-06-04T10:26:41.105Z,32.07
2018-06-04T10:27:41.332Z,32.37
2018-06-04T10:28:41.563Z,32.33
2018-06-04T10:29:41.786Z,31.91
2018-06-04T10:30:41.996Z,32.14
2018-06-04T10:31:42.195Z,32.22
2018-06-04T10:32:42.413Z,32.22
2018-06-04T10:33:42.721Z,32.37
2018-06-04T10:34:42.860Z,32.08
2018-06-04T10:35:43.090Z,31.91
2018-06-04T10:36:43.312Z,31.80
2018-06-04T10:37:43.530Z,31.88
2018-06-04T10:38:43.753Z,31.80
2018-06-04T10:39:43.965Z,31.44
2018-06-04T10:40:44.180Z,30.35
2018-06-04T10:41:44.399Z,30.55
2018-06-04T10:42:44.625Z,30.49
2018-06-04T10:43:44.812Z,29.12
2018-06-04T10:44:45.005Z,29.15
2018-06-04T10:45:45.229Z,29.26
2018-06-04T10:46:45.424Z,29.04
2018-06-04T10:47:45.645Z,29.15
2018-06-04T10:48:45.852Z,29.58
2018-06-04T10:49:46.043Z,29.76
2018-06-04T10:50:46.265Z,28.48
2018-06-04T10:51:46.472Z,28.52
2018-06-04T10:52:46.674Z,29.06
2018-06-04T10:53:46.893Z,29.26
2018-06-04T10:54:47.114Z,29.43
2018-06-04T10:55:47.356Z,29.14
2018-06-04T10:56:47.550Z,29.08
2018-06-04T10:57:47.779Z,29.61
2018-06-04T10:58:47.982Z,30.10
2018-06-04T10:59:48.206Z,30.67
2018-06-04T11:00:48.385Z,30.60
2018-06-04T11:01:48.583Z,30.29
2018-06-04T11:02:48.772Z,30.47
2018-06-04T11:03:48.971Z,30.32
2018-06-04T11:04:49.210Z,29.74
2018-06-04T11:05:49.404Z,29.09
2018-06-04T11:06:49.606Z,28.70
2018-06-04T11:07:49.812Z,28.04
2018-06-04T11:08:50.007Z,28.66
2018-06-04T11:09:50.212Z,28.48
2018-06-04T11:10:50.433Z,28.58
2018-06-04T11:11:50.631Z,29.11
2018-06-04T11:14:22.770Z,29.39
2018-06-04T11:15:22.952Z,29.52
2018-06-04T11:16:23.177Z,29.74
2018-06-04T11:17:23.377Z,30.39
2018-06-04T11:18:23.584Z,30.88
2018-06-04T11:19:23.815Z,30.77
2018-06-04T11:20:24.008Z,30.37
2018-06-04T11:21:24.209Z,30.45
2018-06-04T11:22:24.422Z,30.23
2018-06-04T11:23:24.641Z,30.57
2018-06-04T11:24:24.843Z,30.47
2018-06-04T11:25:25.059Z,30.82
2018-06-04T11:26:25.257Z,31.23
2018-06-04T11:27:25.581Z,31.53
2018-06-04T11:28:25.651Z,31.85
2018-06-04T11:29:25.873Z,32.07
2018-06-04T11:30:26.082Z,31.92
2018-06-04T11:31:26.281Z,31.48
2018-06-04T11:32:26.481Z,31.19
2018-06-04T11:33:26.711Z,31.04
2018-06-04T11:34:26.931Z,30.82
2018-06-04T11:35:27.161Z,30.60
2018-06-04T11:36:27.383Z,30.42
2018-06-04T11:37:27.665Z,30.11
2018-06-04T11:38:27.823Z,30.13
2018-06-04T11:39:28.018Z,29.85
2018-06-04T11:40:28.234Z,29.85
2018-06-04T11:41:28.456Z,29.45
2018-06-04T11:42:28.685Z,28.77
2018-06-04T11:43:28.905Z,29.02
2018-06-04T11:44:29.112Z,29.18
2018-06-04T11:45:29.328Z,29.67
2018-06-04T11:46:29.527Z,30.16
2018-06-04T11:47:29.745Z,30.02
2018-06-04T11:48:29.987Z,29.79
2018-06-04T11:49:30.163Z,29.74
2018-06-04T11:50:30.375Z,29.11
2018-06-04T11:51:30.583Z,28.71
2018-06-04T11:52:30.787Z,29.18
2018-06-04T11:53:31.012Z,29.73
2018-06-04T11:54:31.260Z,29.92
2018-06-04T11:55:31.453Z,30.02
2018-06-04T11:56:31.776Z,30.01
2018-06-04T11:57:31.894Z,29.49
2018-06-04T11:58:32.118Z,29.43
2018-06-04T11:59:32.341Z,29.79
2018-06-04T12:00:32.533Z,29.65
2018-06-04T12:01:32.734Z,29.67
2018-06-04T12:02:32.937Z,29.37
2018-06-04T12:03:33.150Z,29.48
2018-06-04T12:04:33.349Z,29.36
2018-06-04T12:05:33.589Z,29.08
2018-06-04T12:06:33.794Z,28.81
2018-06-04T12:07:34.005Z,28.67
2018-06-04T12:08:34.254Z,28.43
2018-06-04T12:09:34.422Z,28.66
2018-06-04T12:10:34.645Z,28.95
2018-06-04T12:11:34.920Z,29.53
2018-06-04T12:12:35.073Z,29.63
2018-06-04T12:13:35.309Z,29.31
2018-06-04T12:14:35.523Z,29.18
2018-06-04T12:15:35.746Z,28.90
2018-06-04T12:16:35.953Z,29.31
2018-06-04T12:17:36.147Z,29.65
2018-06-04T12:18:36.361Z,30.02
2018-06-04T12:19:36.552Z,29.89
2018-06-04T12:20:36.783Z,30.17
2018-06-04T12:21:37.002Z,30.34
2018-06-04T12:22:37.205Z,30.45
2018-06-04T12:23:37.407Z,30.75
2018-06-04T12:24:37.603Z,30.75
2018-06-04T12:25:37.802Z,30.65
2018-06-04T12:26:38.008Z,30.57
2018-06-04T12:27:38.211Z,30.86
2018-06-04T12:28:38.402Z,30.69
2018-06-04T12:29:38.616Z,31.13
2018-06-04T12:30:38.831Z,31.41
2018-06-04T12:31:39.046Z,31.31
2018-06-04T12:32:39.242Z,31.43
2018-06-04T12:33:39.454Z,31.07
2018-06-04T12:34:39.709Z,30.62
2018-06-04T12:35:39.889Z,30.80
2018-06-04T12:36:40.083Z,30.53
2018-06-04T12:37:40.296Z,30.07
2018-06-04T12:38:40.514Z,29.18
2018-06-04T12:39:40.731Z,29.53
2018-06-04T12:40:40.970Z,30.04
2018-06-04T12:41:41.157Z,30.55
2018-06-04T12:42:41.353Z,30.84
2018-06-04T12:43:41.561Z,31.21
2018-06-04T12:44:41.778Z,31.70
2018-06-04T12:45:41.989Z,31.81
2018-06-04T12:46:42.212Z,30.45
2018-06-04T12:47:42.424Z,29.74
2018-06-04T12:48:42.630Z,29.98
2018-06-04T12:49:42.830Z,29.23
2018-06-04T12:52:14.683Z,29.67
2018-06-04T12:53:14.876Z,29.73
2018-06-04T12:54:15.090Z,29.74
2018-06-04T12:55:15.307Z,29.48
2018-06-04T12:56:15.570Z,29.71
2018-06-04T12:57:15.750Z,29.53
2018-06-04T12:58:16.021Z,29.65
2018-06-04T12:59:16.185Z,29.11
2018-06-04T13:00:16.451Z,29.00
2018-06-04T13:01:16.558Z,29.30
2018-06-04T13:02:16.747Z,29.18
2018-06-04T13:03:16.942Z,29.42
2018-06-04T13:04:17.166Z,29.33
2018-06-04T13:05:17.389Z,29.04
2018-06-04T13:06:18.185Z,28.68
2018-06-04T13:07:17.759Z,28.89
2018-06-04T13:08:17.963Z,29.04
2018-06-04T13:09:18.156Z,29.05
2018-06-04T13:10:18.384Z,29.15
2018-06-04T13:11:18.566Z,29.24
2018-06-04T13:12:18.773Z,29.21
2018-06-04T13:13:18.976Z,29.39
2018-06-04T13:14:19.174Z,29.30
2018-06-04T13:15:19.388Z,29.30
2018-06-04T13:16:19.573Z,29.61
2018-06-04T13:17:19.785Z,29.46
2018-06-04T13:18:20.017Z,29.52
2018-06-04T13:20:52.180Z,29.18
2018-06-04T13:21:52.353Z,29.30
2018-06-04T13:22:52.575Z,29.14
2018-06-04T13:23:52.783Z,28.54